Aérodrome :
LOGIN :

S'inscrire | Disclaimer

   EN    FR    IT 

 










Légende :    VFR   VFR Marginal   IFR   IFR Intensif   IFR Très Intensif
Visi : 
Plafond : 
>= 8 km
>= 3000ft
5 à 8 km
1000 à 3000 ft
1500m à 5 km
500 à 1000 ft
800 à 1500m
200 à 500 ft
< 800m
< 200 ft
Symboles :   Orages  Brouillard  Fortes neiges  Fortes précipitations  Vent > 20 kt
SIGMETs :   Divers  Orages  Givrage  Turbulence  Onde Orograph.  Cendres Volcan.







- Altitude de l'aérodrome : 70 ft
- Code IATA : LEI


LEAM - Almeria

DERNIER METAR :
  • 240430Z VRB04KT CAVOK 16/06 Q1020

METARs EXPIRÉS :
  • 240400Z 35005KT 280V090 CAVOK 16/06 Q1020
  • 240330Z AUTO 02012KT 330V060 CAVOK 16/07 Q1020
  • 240300Z AUTO 35003KT CAVOK 14/07 Q1020
  • 240230Z AUTO 34004KT 260V060 CAVOK 14/07 Q1021
  • 240200Z AUTO 01012G23KT 340V040 9999 NCD 15/07 Q1021

TAF TAF LEAM
Valide du 24 à 03h jusqu'au 25 à 03h UTC


240200Z 2403/2503 35010KT 9999 FEW030 TX21/2414Z TN13/2405Z
BECMG 2408/2411 06014KT
TEMPO 2410/2417 06016G28KT
BECMG 2421/2424 34009KT
Pas de NOTAMs connus pour ce terrain.



MET'MAP, la Météo Aéronautique d'un coup d'oeil ! - Copyright ORBIFLY Décembre 2007 - Disclaimer

ORBIFLY MET'MAP TEAM :

Programmation & Développement : Alexandra Zaïnal
Conception & Développement : Baudouin d'Aumeries
Co-Programmation & Développement : Marc-Olivier Méhu
Soutien technique & logistique : Manuel Goepfert

Contact : metmap@orbifly.com




SOURCES & CREDITS :

   NOAA